CheckWX is a tool to help pilots better visualize weather data.  It is not intended as a substitute for an official pre-flight weather briefing.

20:11:50 UTC

KLXL METAR
Little Falls / Morrison County-Lindbergh Field Airport
Little Falls, Minnesota, USA
Current

13 mins ago

KLXL 231959Z AUTO 25008G15KT 210V270 10SM CLR 18/02 A3003 RMK AO2
Observed
Apr-23 @ 19:59 UTC
Wind
  • 250° at 8 KTS
  • Gusting to 15 KTS
Visibility
10 SM
Flight Rules
VFR
Cloud Levels
  • Clear skies
Temperature
18°C / 64°F
Dewpoint
C / 36°F
Humidity
34%
Altimeter
30.03" Hg
Pressure
1016.92 hPa
Previous

1 hour ago

KLXL 231859Z AUTO 26007G14KT 230V300 10SM CLR 18/02 A3005 RMK AO2
Observed
Apr-23 @ 18:59 UTC
Wind
  • 260° at 7 KTS
  • Gusting to 14 KTS
Visibility
10 SM
Flight Rules
VFR
Cloud Levels
  • Clear skies
Temperature
18°C / 64°F
Dewpoint
C / 36°F
Humidity
34%
Altimeter
30.05" Hg
Pressure
1017.62 hPa
Previous

2 hours ago

KLXL 231759Z AUTO 27005G17KT 10SM CLR 16/02 A3008 RMK AO2
Observed
Apr-23 @ 17:59 UTC
Wind
  • 270° at 5 KTS
  • Gusting to 17 KTS
Visibility
10 SM
Flight Rules
VFR
Cloud Levels
  • Clear skies
Temperature
16°C / 61°F
Dewpoint
C / 36°F
Humidity
39%
Altimeter
30.08" Hg
Pressure
1018.62 hPa